sensor_id;sensor_type;location;lat;lon;timestamp;P1;durP1;ratioP1;P2;durP2;ratioP2
76320;SDS011;65132;52.088;5.402;2023-05-14T00:00:36;16.05;;;9.45;;
76320;SDS011;65132;52.088;5.402;2023-05-14T00:03:02;18.88;;;9.40;;
76320;SDS011;65132;52.088;5.402;2023-05-14T00:05:29;17.85;;;9.85;;
76320;SDS011;65132;52.088;5.402;2023-05-14T00:07:55;14.15;;;8.43;;
76320;SDS011;65132;52.088;5.402;2023-05-14T00:10:23;16.85;;;8.93;;
76320;SDS011;65132;52.088;5.402;2023-05-14T00:12:50;16.10;;;9.82;;
76320;SDS011;65132;52.088;5.402;2023-05-14T00:15:21;18.65;;;9.63;;
76320;SDS011;65132;52.088;5.402;2023-05-14T00:17:49;15.15;;;9.38;;
76320;SDS011;65132;52.088;5.402;2023-05-14T00:20:19;17.60;;;10.30;;
76320;SDS011;65132;52.088;5.402;2023-05-14T00:22:46;14.90;;;9.60;;
76320;SDS011;65132;52.088;5.402;2023-05-14T00:25:14;17.73;;;9.52;;
76320;SDS011;65132;52.088;5.402;2023-05-14T00:27:40;17.40;;;10.20;;
76320;SDS011;65132;52.088;5.402;2023-05-14T00:30:11;14.73;;;8.68;;
76320;SDS011;65132;52.088;5.402;2023-05-14T00:32:37;17.27;;;10.13;;
76320;SDS011;65132;52.088;5.402;2023-05-14T00:35:04;14.45;;;9.07;;
76320;SDS011;65132;52.088;5.402;2023-05-14T00:37:30;15.35;;;9.52;;
76320;SDS011;65132;52.088;5.402;2023-05-14T00:39:59;16.90;;;8.40;;
76320;SDS011;65132;52.088;5.402;2023-05-14T00:42:25;13.10;;;8.23;;
76320;SDS011;65132;52.088;5.402;2023-05-14T00:44:54;15.98;;;9.23;;
76320;SDS011;65132;52.088;5.402;2023-05-14T00:47:20;16.23;;;9.13;;
76320;SDS011;65132;52.088;5.402;2023-05-14T00:49:47;16.70;;;9.20;;
76320;SDS011;65132;52.088;5.402;2023-05-14T00:52:13;14.85;;;9.38;;
76320;SDS011;65132;52.088;5.402;2023-05-14T00:54:40;17.83;;;9.02;;
76320;SDS011;65132;52.088;5.402;2023-05-14T00:57:07;14.18;;;8.85;;
76320;SDS011;65132;52.088;5.402;2023-05-14T00:59:37;14.88;;;9.00;;
76320;SDS011;65132;52.088;5.402;2023-05-14T01:02:07;18.77;;;9.98;;
76320;SDS011;65132;52.088;5.402;2023-05-14T01:04:36;17.67;;;9.13;;
76320;SDS011;65132;52.088;5.402;2023-05-14T01:07:07;15.25;;;8.20;;
76320;SDS011;65132;52.088;5.402;2023-05-14T01:17:19;14.07;;;8.50;;
76320;SDS011;65132;52.088;5.402;2023-05-14T01:19:46;18.50;;;9.02;;
76320;SDS011;65132;52.088;5.402;2023-05-14T01:22:12;16.83;;;8.55;;
76320;SDS011;65132;52.088;5.402;2023-05-14T01:24:40;15.60;;;9.32;;
76320;SDS011;65132;52.088;5.402;2023-05-14T01:27:20;16.20;;;8.30;;
76320;SDS011;65132;52.088;5.402;2023-05-14T01:30:38;15.57;;;7.78;;
76320;SDS011;65132;52.088;5.402;2023-05-14T01:32:38;16.90;;;8.82;;
76320;SDS011;65132;52.088;5.402;2023-05-14T01:35:14;13.10;;;8.50;;
76320;SDS011;65132;52.088;5.402;2023-05-14T01:37:43;17.20;;;9.35;;
76320;SDS011;65132;52.088;5.402;2023-05-14T01:40:09;15.30;;;9.00;;
76320;SDS011;65132;52.088;5.402;2023-05-14T01:42:43;16.90;;;8.25;;
76320;SDS011;65132;52.088;5.402;2023-05-14T01:45:12;16.27;;;9.02;;
76320;SDS011;65132;52.088;5.402;2023-05-14T01:47:38;16.90;;;9.38;;
76320;SDS011;65132;52.088;5.402;2023-05-14T01:50:06;17.63;;;7.97;;
76320;SDS011;65132;52.088;5.402;2023-05-14T01:52:32;17.45;;;9.02;;
76320;SDS011;65132;52.088;5.402;2023-05-14T01:55:01;17.70;;;9.57;;
76320;SDS011;65132;52.088;5.402;2023-05-14T01:57:29;20.13;;;9.55;;
76320;SDS011;65132;52.088;5.402;2023-05-14T01:59:56;16.73;;;8.15;;
76320;SDS011;65132;52.088;5.402;2023-05-14T02:02:25;17.25;;;8.27;;
76320;SDS011;65132;52.088;5.402;2023-05-14T02:04:54;15.63;;;9.05;;
76320;SDS011;65132;52.088;5.402;2023-05-14T02:07:20;19.13;;;8.43;;
76320;SDS011;65132;52.088;5.402;2023-05-14T02:09:46;16.20;;;8.80;;
76320;SDS011;65132;52.088;5.402;2023-05-14T02:12:15;19.63;;;8.52;;
76320;SDS011;65132;52.088;5.402;2023-05-14T02:14:42;13.30;;;7.65;;
76320;SDS011;65132;52.088;5.402;2023-05-14T02:17:08;15.35;;;9.05;;
76320;SDS011;65132;52.088;5.402;2023-05-14T02:19:35;15.93;;;8.43;;
76320;SDS011;65132;52.088;5.402;2023-05-14T02:22:02;16.27;;;7.38;;
76320;SDS011;65132;52.088;5.402;2023-05-14T02:24:32;16.05;;;7.90;;
76320;SDS011;65132;52.088;5.402;2023-05-14T02:27:01;18.67;;;8.23;;
76320;SDS011;65132;52.088;5.402;2023-05-14T02:29:27;15.52;;;8.65;;
76320;SDS011;65132;52.088;5.402;2023-05-14T02:31:53;19.55;;;8.75;;
76320;SDS011;65132;52.088;5.402;2023-05-14T02:34:24;13.48;;;8.43;;
76320;SDS011;65132;52.088;5.402;2023-05-14T02:36:53;18.70;;;9.80;;
76320;SDS011;65132;52.088;5.402;2023-05-14T02:39:26;18.27;;;9.80;;
76320;SDS011;65132;52.088;5.402;2023-05-14T02:41:52;16.30;;;8.60;;
76320;SDS011;65132;52.088;5.402;2023-05-14T02:44:19;16.67;;;8.00;;
76320;SDS011;65132;52.088;5.402;2023-05-14T02:46:45;16.58;;;8.18;;
76320;SDS011;65132;52.088;5.402;2023-05-14T02:49:11;17.55;;;8.48;;
76320;SDS011;65132;52.088;5.402;2023-05-14T02:51:44;16.48;;;8.68;;
76320;SDS011;65132;52.088;5.402;2023-05-14T02:54:11;15.02;;;9.30;;
76320;SDS011;65132;52.088;5.402;2023-05-14T02:56:37;16.65;;;8.32;;
76320;SDS011;65132;52.088;5.402;2023-05-14T02:59:03;16.60;;;9.00;;
76320;SDS011;65132;52.088;5.402;2023-05-14T03:01:30;16.70;;;7.97;;
76320;SDS011;65132;52.088;5.402;2023-05-14T03:03:58;18.25;;;7.75;;
76320;SDS011;65132;52.088;5.402;2023-05-14T03:06:27;16.33;;;8.93;;
76320;SDS011;65132;52.088;5.402;2023-05-14T03:08:53;15.75;;;8.60;;
76320;SDS011;65132;52.088;5.402;2023-05-14T03:11:19;17.25;;;8.07;;
76320;SDS011;65132;52.088;5.402;2023-05-14T03:13:47;16.70;;;8.93;;
76320;SDS011;65132;52.088;5.402;2023-05-14T03:16:14;15.65;;;8.10;;
76320;SDS011;65132;52.088;5.402;2023-05-14T03:18:42;16.85;;;8.40;;
76320;SDS011;65132;52.088;5.402;2023-05-14T03:21:11;15.75;;;8.10;;
76320;SDS011;65132;52.088;5.402;2023-05-14T03:23:43;16.02;;;8.63;;
76320;SDS011;65132;52.088;5.402;2023-05-14T03:26:09;15.80;;;8.07;;
76320;SDS011;65132;52.088;5.402;2023-05-14T03:28:36;17.58;;;8.88;;
76320;SDS011;65132;52.088;5.402;2023-05-14T03:31:02;15.52;;;7.93;;
76320;SDS011;65132;52.088;5.402;2023-05-14T03:33:28;20.08;;;8.45;;
76320;SDS011;65132;52.088;5.402;2023-05-14T03:35:54;17.35;;;8.63;;
76320;SDS011;65132;52.088;5.402;2023-05-14T03:38:26;15.68;;;8.55;;
76320;SDS011;65132;52.088;5.402;2023-05-14T03:40:53;16.17;;;7.57;;
76320;SDS011;65132;52.088;5.402;2023-05-14T03:43:19;14.88;;;8.77;;
76320;SDS011;65132;52.088;5.402;2023-05-14T03:45:45;16.95;;;8.80;;
76320;SDS011;65132;52.088;5.402;2023-05-14T03:48:12;15.95;;;8.13;;
76320;SDS011;65132;52.088;5.402;2023-05-14T03:50:38;15.70;;;9.00;;
76320;SDS011;65132;52.088;5.402;2023-05-14T03:53:04;15.10;;;8.20;;
76320;SDS011;65132;52.088;5.402;2023-05-14T03:55:33;18.80;;;9.52;;
76320;SDS011;65132;52.088;5.402;2023-05-14T03:57:59;18.75;;;8.95;;
76320;SDS011;65132;52.088;5.402;2023-05-14T04:00:25;18.80;;;8.82;;
76320;SDS011;65132;52.088;5.402;2023-05-14T04:02:55;16.90;;;7.38;;
76320;SDS011;65132;52.088;5.402;2023-05-14T04:05:25;15.93;;;7.22;;
76320;SDS011;65132;52.088;5.402;2023-05-14T04:07:54;21.38;;;9.32;;
76320;SDS011;65132;52.088;5.402;2023-05-14T04:10:23;18.45;;;7.72;;
76320;SDS011;65132;52.088;5.402;2023-05-14T04:12:51;17.10;;;7.63;;
76320;SDS011;65132;52.088;5.402;2023-05-14T04:15:17;16.70;;;8.60;;
76320;SDS011;65132;52.088;5.402;2023-05-14T04:17:43;15.15;;;7.25;;
76320;SDS011;65132;52.088;5.402;2023-05-14T04:20:10;16.52;;;8.48;;
76320;SDS011;65132;52.088;5.402;2023-05-14T04:22:36;17.63;;;8.95;;
76320;SDS011;65132;52.088;5.402;2023-05-14T04:25:03;16.83;;;8.85;;
76320;SDS011;65132;52.088;5.402;2023-05-14T04:27:32;16.33;;;6.80;;
76320;SDS011;65132;52.088;5.402;2023-05-14T04:29:58;19.88;;;8.35;;
76320;SDS011;65132;52.088;5.402;2023-05-14T04:32:26;17.45;;;7.90;;
76320;SDS011;65132;52.088;5.402;2023-05-14T04:34:52;13.73;;;6.90;;
76320;SDS011;65132;52.088;5.402;2023-05-14T04:37:20;16.17;;;7.90;;
76320;SDS011;65132;52.088;5.402;2023-05-14T04:39:46;16.25;;;8.23;;
76320;SDS011;65132;52.088;5.402;2023-05-14T04:42:12;13.65;;;6.95;;
76320;SDS011;65132;52.088;5.402;2023-05-14T04:44:39;14.55;;;7.85;;
76320;SDS011;65132;52.088;5.402;2023-05-14T04:47:05;18.00;;;8.02;;
76320;SDS011;65132;52.088;5.402;2023-05-14T04:49:31;16.58;;;7.35;;
76320;SDS011;65132;52.088;5.402;2023-05-14T04:51:58;16.58;;;8.32;;
76320;SDS011;65132;52.088;5.402;2023-05-14T04:54:24;14.18;;;6.97;;
76320;SDS011;65132;52.088;5.402;2023-05-14T04:56:50;13.80;;;7.85;;
76320;SDS011;65132;52.088;5.402;2023-05-14T04:59:17;15.07;;;8.02;;
76320;SDS011;65132;52.088;5.402;2023-05-14T05:01:46;13.32;;;7.07;;
76320;SDS011;65132;52.088;5.402;2023-05-14T05:04:12;15.15;;;7.53;;
76320;SDS011;65132;52.088;5.402;2023-05-14T05:06:42;14.98;;;7.50;;
76320;SDS011;65132;52.088;5.402;2023-05-14T05:09:08;14.30;;;6.65;;
76320;SDS011;65132;52.088;5.402;2023-05-14T05:11:34;18.25;;;7.28;;
76320;SDS011;65132;52.088;5.402;2023-05-14T05:14:00;13.57;;;7.28;;
76320;SDS011;65132;52.088;5.402;2023-05-14T05:16:26;13.07;;;6.85;;
76320;SDS011;65132;52.088;5.402;2023-05-14T05:18:53;16.55;;;6.63;;
76320;SDS011;65132;52.088;5.402;2023-05-14T05:21:22;11.90;;;5.88;;
76320;SDS011;65132;52.088;5.402;2023-05-14T05:23:48;13.80;;;7.40;;
76320;SDS011;65132;52.088;5.402;2023-05-14T05:26:15;13.23;;;6.88;;
76320;SDS011;65132;52.088;5.402;2023-05-14T05:28:45;14.25;;;6.72;;
76320;SDS011;65132;52.088;5.402;2023-05-14T05:31:11;15.75;;;7.43;;
76320;SDS011;65132;52.088;5.402;2023-05-14T05:33:38;11.10;;;6.30;;
76320;SDS011;65132;52.088;5.402;2023-05-14T05:36:06;14.18;;;6.32;;
76320;SDS011;65132;52.088;5.402;2023-05-14T05:38:32;15.60;;;7.90;;
76320;SDS011;65132;52.088;5.402;2023-05-14T05:40:58;15.43;;;6.78;;
76320;SDS011;65132;52.088;5.402;2023-05-14T05:43:28;14.85;;;7.25;;
76320;SDS011;65132;52.088;5.402;2023-05-14T05:45:54;12.57;;;6.88;;
76320;SDS011;65132;52.088;5.402;2023-05-14T05:48:20;14.40;;;6.28;;
76320;SDS011;65132;52.088;5.402;2023-05-14T05:50:49;13.65;;;6.90;;
76320;SDS011;65132;52.088;5.402;2023-05-14T05:53:15;15.38;;;7.10;;
76320;SDS011;65132;52.088;5.402;2023-05-14T05:55:42;15.75;;;7.13;;
76320;SDS011;65132;52.088;5.402;2023-05-14T05:58:10;11.65;;;6.10;;
76320;SDS011;65132;52.088;5.402;2023-05-14T06:00:37;12.30;;;7.40;;
76320;SDS011;65132;52.088;5.402;2023-05-14T06:03:03;14.00;;;7.28;;
76320;SDS011;65132;52.088;5.402;2023-05-14T06:05:32;12.60;;;6.93;;
76320;SDS011;65132;52.088;5.402;2023-05-14T06:07:59;14.95;;;6.43;;
76320;SDS011;65132;52.088;5.402;2023-05-14T06:10:27;13.63;;;6.65;;
76320;SDS011;65132;52.088;5.402;2023-05-14T06:12:54;14.13;;;7.68;;
76320;SDS011;65132;52.088;5.402;2023-05-14T06:15:21;13.52;;;7.07;;
76320;SDS011;65132;52.088;5.402;2023-05-14T06:17:48;13.43;;;6.32;;
76320;SDS011;65132;52.088;5.402;2023-05-14T06:20:17;12.77;;;6.18;;
76320;SDS011;65132;52.088;5.402;2023-05-14T06:22:44;13.80;;;6.20;;
76320;SDS011;65132;52.088;5.402;2023-05-14T06:25:10;12.35;;;6.68;;
76320;SDS011;65132;52.088;5.402;2023-05-14T06:27:37;11.98;;;6.38;;
76320;SDS011;65132;52.088;5.402;2023-05-14T06:30:08;13.60;;;6.32;;
76320;SDS011;65132;52.088;5.402;2023-05-14T06:32:34;14.85;;;7.47;;
76320;SDS011;65132;52.088;5.402;2023-05-14T06:35:04;11.27;;;5.95;;
76320;SDS011;65132;52.088;5.402;2023-05-14T06:37:30;12.63;;;6.68;;
76320;SDS011;65132;52.088;5.402;2023-05-14T06:39:57;13.55;;;6.32;;
76320;SDS011;65132;52.088;5.402;2023-05-14T06:42:23;13.88;;;7.30;;
76320;SDS011;65132;52.088;5.402;2023-05-14T06:44:49;13.40;;;7.13;;
76320;SDS011;65132;52.088;5.402;2023-05-14T06:47:15;11.75;;;6.30;;
76320;SDS011;65132;52.088;5.402;2023-05-14T06:49:42;13.10;;;7.28;;
76320;SDS011;65132;52.088;5.402;2023-05-14T06:52:08;14.18;;;6.80;;
76320;SDS011;65132;52.088;5.402;2023-05-14T06:54:34;12.13;;;6.70;;
76320;SDS011;65132;52.088;5.402;2023-05-14T06:57:00;11.52;;;6.85;;
76320;SDS011;65132;52.088;5.402;2023-05-14T06:59:28;13.90;;;6.90;;
76320;SDS011;65132;52.088;5.402;2023-05-14T07:01:55;10.57;;;6.40;;
76320;SDS011;65132;52.088;5.402;2023-05-14T07:04:21;11.40;;;6.30;;
76320;SDS011;65132;52.088;5.402;2023-05-14T07:06:48;12.30;;;6.40;;
76320;SDS011;65132;52.088;5.402;2023-05-14T07:09:14;11.48;;;6.30;;
76320;SDS011;65132;52.088;5.402;2023-05-14T07:11:45;12.65;;;6.35;;
76320;SDS011;65132;52.088;5.402;2023-05-14T07:14:12;11.52;;;6.25;;
76320;SDS011;65132;52.088;5.402;2023-05-14T07:16:39;10.15;;;5.65;;
76320;SDS011;65132;52.088;5.402;2023-05-14T07:19:06;9.55;;;6.32;;
76320;SDS011;65132;52.088;5.402;2023-05-14T07:21:38;11.57;;;5.22;;
76320;SDS011;65132;52.088;5.402;2023-05-14T07:24:06;11.52;;;6.07;;
76320;SDS011;65132;52.088;5.402;2023-05-14T07:26:32;10.98;;;6.07;;
76320;SDS011;65132;52.088;5.402;2023-05-14T07:29:00;9.88;;;5.13;;
76320;SDS011;65132;52.088;5.402;2023-05-14T07:31:26;10.15;;;5.15;;
76320;SDS011;65132;52.088;5.402;2023-05-14T07:33:53;11.07;;;5.18;;
76320;SDS011;65132;52.088;5.402;2023-05-14T07:36:20;10.80;;;5.75;;
76320;SDS011;65132;52.088;5.402;2023-05-14T07:38:46;11.63;;;6.15;;
76320;SDS011;65132;52.088;5.402;2023-05-14T07:41:16;10.38;;;5.18;;
76320;SDS011;65132;52.088;5.402;2023-05-14T07:43:44;11.05;;;5.88;;
76320;SDS011;65132;52.088;5.402;2023-05-14T07:46:13;9.02;;;5.10;;
76320;SDS011;65132;52.088;5.402;2023-05-14T07:48:39;10.40;;;5.00;;
76320;SDS011;65132;52.088;5.402;2023-05-14T07:51:06;12.88;;;5.53;;
76320;SDS011;65132;52.088;5.402;2023-05-14T07:53:33;10.70;;;5.10;;
76320;SDS011;65132;52.088;5.402;2023-05-14T07:55:59;8.27;;;4.70;;
76320;SDS011;65132;52.088;5.402;2023-05-14T07:58:26;13.90;;;7.45;;
76320;SDS011;65132;52.088;5.402;2023-05-14T08:00:52;11.55;;;6.00;;
76320;SDS011;65132;52.088;5.402;2023-05-14T08:03:19;10.95;;;6.18;;
76320;SDS011;65132;52.088;5.402;2023-05-14T08:05:46;13.98;;;6.40;;
76320;SDS011;65132;52.088;5.402;2023-05-14T08:08:15;10.63;;;6.20;;
76320;SDS011;65132;52.088;5.402;2023-05-14T08:10:41;11.18;;;6.72;;
76320;SDS011;65132;52.088;5.402;2023-05-14T08:13:08;11.52;;;6.90;;
76320;SDS011;65132;52.088;5.402;2023-05-14T08:15:40;14.90;;;6.60;;
76320;SDS011;65132;52.088;5.402;2023-05-14T08:18:10;11.43;;;5.90;;
76320;SDS011;65132;52.088;5.402;2023-05-14T08:20:38;13.50;;;8.02;;
76320;SDS011;65132;52.088;5.402;2023-05-14T08:23:05;10.50;;;5.93;;
76320;SDS011;65132;52.088;5.402;2023-05-14T08:25:34;11.23;;;6.50;;
76320;SDS011;65132;52.088;5.402;2023-05-14T08:28:00;10.63;;;7.22;;
76320;SDS011;65132;52.088;5.402;2023-05-14T08:30:27;9.18;;;5.65;;
76320;SDS011;65132;52.088;5.402;2023-05-14T08:32:53;12.98;;;7.05;;
76320;SDS011;65132;52.088;5.402;2023-05-14T08:35:20;9.40;;;6.55;;
76320;SDS011;65132;52.088;5.402;2023-05-14T08:37:48;11.52;;;6.13;;
76320;SDS011;65132;52.088;5.402;2023-05-14T08:40:15;10.90;;;6.05;;
76320;SDS011;65132;52.088;5.402;2023-05-14T08:42:41;11.73;;;6.97;;
76320;SDS011;65132;52.088;5.402;2023-05-14T08:45:18;9.20;;;5.80;;
76320;SDS011;65132;52.088;5.402;2023-05-14T08:47:46;11.57;;;6.28;;
76320;SDS011;65132;52.088;5.402;2023-05-14T08:50:13;12.43;;;6.55;;
76320;SDS011;65132;52.088;5.402;2023-05-14T08:52:39;10.02;;;5.93;;
76320;SDS011;65132;52.088;5.402;2023-05-14T08:55:09;9.65;;;5.97;;
76320;SDS011;65132;52.088;5.402;2023-05-14T08:57:36;11.25;;;6.70;;
76320;SDS011;65132;52.088;5.402;2023-05-14T09:00:04;7.97;;;5.25;;
76320;SDS011;65132;52.088;5.402;2023-05-14T09:02:30;9.23;;;5.43;;
76320;SDS011;65132;52.088;5.402;2023-05-14T09:04:59;11.77;;;5.38;;
76320;SDS011;65132;52.088;5.402;2023-05-14T09:07:27;11.82;;;5.43;;
76320;SDS011;65132;52.088;5.402;2023-05-14T09:09:54;9.55;;;5.82;;
76320;SDS011;65132;52.088;5.402;2023-05-14T09:12:20;9.68;;;5.53;;
76320;SDS011;65132;52.088;5.402;2023-05-14T09:14:47;9.05;;;5.25;;
76320;SDS011;65132;52.088;5.402;2023-05-14T09:17:17;10.05;;;5.82;;
76320;SDS011;65132;52.088;5.402;2023-05-14T09:19:44;11.45;;;5.78;;
76320;SDS011;65132;52.088;5.402;2023-05-14T09:22:11;9.85;;;5.82;;
76320;SDS011;65132;52.088;5.402;2023-05-14T09:24:38;8.80;;;5.13;;
76320;SDS011;65132;52.088;5.402;2023-05-14T09:27:08;9.02;;;5.72;;
76320;SDS011;65132;52.088;5.402;2023-05-14T09:29:35;8.70;;;5.47;;
76320;SDS011;65132;52.088;5.402;2023-05-14T09:32:01;8.52;;;5.05;;
76320;SDS011;65132;52.088;5.402;2023-05-14T09:34:30;7.43;;;4.75;;
76320;SDS011;65132;52.088;5.402;2023-05-14T09:36:58;9.82;;;5.30;;
76320;SDS011;65132;52.088;5.402;2023-05-14T09:39:25;8.40;;;4.75;;
76320;SDS011;65132;52.088;5.402;2023-05-14T09:41:54;8.70;;;4.85;;
76320;SDS011;65132;52.088;5.402;2023-05-14T09:44:21;10.13;;;5.45;;
76320;SDS011;65132;52.088;5.402;2023-05-14T09:46:49;7.78;;;4.80;;
76320;SDS011;65132;52.088;5.402;2023-05-14T09:49:16;7.25;;;5.10;;
76320;SDS011;65132;52.088;5.402;2023-05-14T09:51:43;8.27;;;4.85;;
76320;SDS011;65132;52.088;5.402;2023-05-14T09:54:09;7.75;;;5.07;;
76320;SDS011;65132;52.088;5.402;2023-05-14T09:56:36;10.45;;;5.03;;
76320;SDS011;65132;52.088;5.402;2023-05-14T09:59:03;7.95;;;5.35;;
76320;SDS011;65132;52.088;5.402;2023-05-14T10:01:29;7.20;;;4.63;;
76320;SDS011;65132;52.088;5.402;2023-05-14T10:03:56;10.98;;;5.00;;
76320;SDS011;65132;52.088;5.402;2023-05-14T10:06:24;7.50;;;4.47;;
76320;SDS011;65132;52.088;5.402;2023-05-14T10:08:59;10.90;;;5.72;;
76320;SDS011;65132;52.088;5.402;2023-05-14T10:11:27;8.02;;;4.57;;
76320;SDS011;65132;52.088;5.402;2023-05-14T10:14:06;9.98;;;4.70;;
76320;SDS011;65132;52.088;5.402;2023-05-14T10:16:34;9.80;;;5.68;;
76320;SDS011;65132;52.088;5.402;2023-05-14T10:19:11;9.73;;;5.22;;
76320;SDS011;65132;52.088;5.402;2023-05-14T10:21:39;8.95;;;5.45;;
76320;SDS011;65132;52.088;5.402;2023-05-14T10:24:06;8.88;;;4.88;;
76320;SDS011;65132;52.088;5.402;2023-05-14T10:26:34;7.78;;;4.45;;
76320;SDS011;65132;52.088;5.402;2023-05-14T10:29:01;9.32;;;4.82;;
76320;SDS011;65132;52.088;5.402;2023-05-14T10:37:02;9.00;;;5.00;;
76320;SDS011;65132;52.088;5.402;2023-05-14T10:39:39;9.35;;;5.18;;
76320;SDS011;65132;52.088;5.402;2023-05-14T10:42:07;9.45;;;4.90;;
76320;SDS011;65132;52.088;5.402;2023-05-14T10:44:34;8.07;;;4.70;;
76320;SDS011;65132;52.088;5.402;2023-05-14T10:47:01;8.90;;;4.88;;
76320;SDS011;65132;52.088;5.402;2023-05-14T10:49:31;7.60;;;4.50;;
76320;SDS011;65132;52.088;5.402;2023-05-14T10:52:09;8.07;;;4.95;;
76320;SDS011;65132;52.088;5.402;2023-05-14T10:54:52;10.50;;;5.10;;
76320;SDS011;65132;52.088;5.402;2023-05-14T10:57:19;8.80;;;4.90;;
76320;SDS011;65132;52.088;5.402;2023-05-14T10:59:51;7.85;;;4.30;;
76320;SDS011;65132;52.088;5.402;2023-05-14T11:04:59;6.50;;;4.38;;
76320;SDS011;65132;52.088;5.402;2023-05-14T11:07:29;9.20;;;5.28;;
76320;SDS011;65132;52.088;5.402;2023-05-14T11:10:00;9.77;;;5.72;;
76320;SDS011;65132;52.088;5.402;2023-05-14T11:12:27;5.85;;;4.28;;
76320;SDS011;65132;52.088;5.402;2023-05-14T11:14:57;10.05;;;4.85;;
76320;SDS011;65132;52.088;5.402;2023-05-14T11:17:27;6.88;;;4.55;;
76320;SDS011;65132;52.088;5.402;2023-05-14T11:19:54;7.50;;;4.63;;
76320;SDS011;65132;52.088;5.402;2023-05-14T11:22:21;6.75;;;4.32;;
76320;SDS011;65132;52.088;5.402;2023-05-14T11:24:48;8.48;;;4.32;;
76320;SDS011;65132;52.088;5.402;2023-05-14T11:27:15;8.38;;;4.55;;
76320;SDS011;65132;52.088;5.402;2023-05-14T11:29:44;8.63;;;4.80;;
76320;SDS011;65132;52.088;5.402;2023-05-14T11:32:12;7.28;;;4.25;;
76320;SDS011;65132;52.088;5.402;2023-05-14T11:34:38;9.43;;;4.30;;
76320;SDS011;65132;52.088;5.402;2023-05-14T11:37:05;10.73;;;4.68;;
76320;SDS011;65132;52.088;5.402;2023-05-14T11:39:34;8.32;;;4.07;;
76320;SDS011;65132;52.088;5.402;2023-05-14T11:42:02;7.32;;;3.85;;
76320;SDS011;65132;52.088;5.402;2023-05-14T11:44:29;6.65;;;3.65;;
76320;SDS011;65132;52.088;5.402;2023-05-14T11:46:56;9.20;;;4.65;;
76320;SDS011;65132;52.088;5.402;2023-05-14T11:49:23;9.23;;;3.90;;
76320;SDS011;65132;52.088;5.402;2023-05-14T11:51:56;7.03;;;3.65;;
76320;SDS011;65132;52.088;5.402;2023-05-14T11:54:26;7.45;;;3.80;;
76320;SDS011;65132;52.088;5.402;2023-05-14T11:56:54;7.10;;;4.15;;
76320;SDS011;65132;52.088;5.402;2023-05-14T11:59:21;7.53;;;4.65;;
76320;SDS011;65132;52.088;5.402;2023-05-14T12:01:53;7.35;;;4.03;;
76320;SDS011;65132;52.088;5.402;2023-05-14T12:04:21;7.00;;;4.35;;
76320;SDS011;65132;52.088;5.402;2023-05-14T12:06:48;7.53;;;4.07;;
76320;SDS011;65132;52.088;5.402;2023-05-14T12:09:21;7.70;;;4.18;;
76320;SDS011;65132;52.088;5.402;2023-05-14T12:11:48;7.80;;;4.15;;
76320;SDS011;65132;52.088;5.402;2023-05-14T12:14:16;8.82;;;4.65;;
76320;SDS011;65132;52.088;5.402;2023-05-14T12:16:43;8.20;;;3.90;;
76320;SDS011;65132;52.088;5.402;2023-05-14T12:19:10;7.97;;;3.88;;
76320;SDS011;65132;52.088;5.402;2023-05-14T12:21:37;9.20;;;4.25;;
76320;SDS011;65132;52.088;5.402;2023-05-14T12:24:08;7.43;;;4.38;;
76320;SDS011;65132;52.088;5.402;2023-05-14T12:26:35;7.30;;;4.80;;
76320;SDS011;65132;52.088;5.402;2023-05-14T12:29:02;9.45;;;4.20;;
76320;SDS011;65132;52.088;5.402;2023-05-14T12:31:29;7.20;;;3.72;;
76320;SDS011;65132;52.088;5.402;2023-05-14T12:33:58;6.72;;;3.53;;
76320;SDS011;65132;52.088;5.402;2023-05-14T12:36:27;6.75;;;4.15;;
76320;SDS011;65132;52.088;5.402;2023-05-14T12:39:00;7.38;;;4.00;;
76320;SDS011;65132;52.088;5.402;2023-05-14T12:41:31;7.97;;;3.58;;
76320;SDS011;65132;52.088;5.402;2023-05-14T12:43:59;7.35;;;3.75;;
76320;SDS011;65132;52.088;5.402;2023-05-14T12:46:26;9.52;;;3.78;;
76320;SDS011;65132;52.088;5.402;2023-05-14T12:48:53;6.45;;;3.22;;
76320;SDS011;65132;52.088;5.402;2023-05-14T12:51:19;5.07;;;3.85;;
76320;SDS011;65132;52.088;5.402;2023-05-14T12:53:46;7.15;;;4.07;;
76320;SDS011;65132;52.088;5.402;2023-05-14T12:56:12;10.27;;;3.88;;
76320;SDS011;65132;52.088;5.402;2023-05-14T12:58:39;6.78;;;4.05;;
76320;SDS011;65132;52.088;5.402;2023-05-14T13:01:05;8.00;;;3.83;;
76320;SDS011;65132;52.088;5.402;2023-05-14T13:03:32;7.85;;;4.05;;
76320;SDS011;65132;52.088;5.402;2023-05-14T13:05:58;6.97;;;3.40;;
76320;SDS011;65132;52.088;5.402;2023-05-14T13:08:25;7.38;;;3.53;;
76320;SDS011;65132;52.088;5.402;2023-05-14T13:10:52;6.70;;;3.20;;
76320;SDS011;65132;52.088;5.402;2023-05-14T13:13:19;7.40;;;4.25;;
76320;SDS011;65132;52.088;5.402;2023-05-14T13:15:45;6.80;;;4.43;;
76320;SDS011;65132;52.088;5.402;2023-05-14T13:18:16;6.88;;;3.28;;
76320;SDS011;65132;52.088;5.402;2023-05-14T13:20:43;6.95;;;3.40;;
76320;SDS011;65132;52.088;5.402;2023-05-14T13:23:10;6.10;;;4.00;;
76320;SDS011;65132;52.088;5.402;2023-05-14T13:25:37;6.32;;;3.58;;
76320;SDS011;65132;52.088;5.402;2023-05-14T13:28:03;9.45;;;3.90;;
76320;SDS011;65132;52.088;5.402;2023-05-14T13:30:30;6.15;;;3.75;;
76320;SDS011;65132;52.088;5.402;2023-05-14T13:32:56;8.82;;;3.42;;
76320;SDS011;65132;52.088;5.402;2023-05-14T13:35:23;8.20;;;3.97;;
76320;SDS011;65132;52.088;5.402;2023-05-14T13:37:50;7.95;;;3.47;;
76320;SDS011;65132;52.088;5.402;2023-05-14T13:40:17;7.97;;;3.88;;
76320;SDS011;65132;52.088;5.402;2023-05-14T13:42:43;9.35;;;3.90;;
76320;SDS011;65132;52.088;5.402;2023-05-14T13:45:10;7.45;;;3.63;;
76320;SDS011;65132;52.088;5.402;2023-05-14T13:47:37;7.93;;;3.50;;
76320;SDS011;65132;52.088;5.402;2023-05-14T13:50:05;5.85;;;3.70;;
76320;SDS011;65132;52.088;5.402;2023-05-14T13:52:32;8.13;;;3.88;;
76320;SDS011;65132;52.088;5.402;2023-05-14T13:54:58;7.47;;;3.42;;
76320;SDS011;65132;52.088;5.402;2023-05-14T13:57:25;7.60;;;3.92;;
76320;SDS011;65132;52.088;5.402;2023-05-14T13:59:51;5.68;;;3.53;;
76320;SDS011;65132;52.088;5.402;2023-05-14T14:02:18;5.88;;;3.58;;
76320;SDS011;65132;52.088;5.402;2023-05-14T14:04:44;7.63;;;3.35;;
76320;SDS011;65132;52.088;5.402;2023-05-14T14:07:12;8.48;;;3.95;;
76320;SDS011;65132;52.088;5.402;2023-05-14T14:09:39;5.47;;;3.08;;
76320;SDS011;65132;52.088;5.402;2023-05-14T14:12:10;9.80;;;3.58;;
76320;SDS011;65132;52.088;5.402;2023-05-14T14:14:37;5.70;;;3.53;;
76320;SDS011;65132;52.088;5.402;2023-05-14T14:17:09;6.82;;;3.60;;
76320;SDS011;65132;52.088;5.402;2023-05-14T14:19:47;8.02;;;4.15;;
76320;SDS011;65132;52.088;5.402;2023-05-14T14:22:18;5.72;;;3.50;;
76320;SDS011;65132;52.088;5.402;2023-05-14T14:24:53;8.25;;;3.67;;
76320;SDS011;65132;52.088;5.402;2023-05-14T14:27:22;7.45;;;3.92;;
76320;SDS011;65132;52.088;5.402;2023-05-14T14:29:50;5.57;;;4.03;;
76320;SDS011;65132;52.088;5.402;2023-05-14T14:32:17;6.28;;;3.65;;
76320;SDS011;65132;52.088;5.402;2023-05-14T14:34:43;7.88;;;4.00;;
76320;SDS011;65132;52.088;5.402;2023-05-14T14:37:10;6.65;;;3.80;;
76320;SDS011;65132;52.088;5.402;2023-05-14T14:39:37;5.38;;;3.05;;
76320;SDS011;65132;52.088;5.402;2023-05-14T14:42:05;5.28;;;3.67;;
76320;SDS011;65132;52.088;5.402;2023-05-14T14:44:33;6.15;;;4.20;;
76320;SDS011;65132;52.088;5.402;2023-05-14T14:47:00;7.15;;;3.80;;
76320;SDS011;65132;52.088;5.402;2023-05-14T14:49:27;5.40;;;4.18;;
76320;SDS011;65132;52.088;5.402;2023-05-14T14:51:53;5.65;;;3.55;;
76320;SDS011;65132;52.088;5.402;2023-05-14T14:54:20;7.72;;;3.35;;
76320;SDS011;65132;52.088;5.402;2023-05-14T14:56:48;5.32;;;3.35;;
76320;SDS011;65132;52.088;5.402;2023-05-14T14:59:16;8.10;;;3.85;;